Fruitland, Washington
Current Conditions -  °F | °C
As of 12:17 AM on Sunday 23 Nov 2014 (Local Time) from KDEW Reporting Station
Broken Clouds Broken Clouds  
Wind Chill: 23°   Ceiling: 1100
Heat Index: 30°   Visibility: 10mi
Dew Point: 29°   Wind: 7mph
Humidity: 96%   Direction: 140°SE
Pressure: 30.01"   Gusts: NA
Location:  48.07°N, 118.2°W
Report Text: KDEW 230817Z AUTO 14006KT 10SM BKN011 M01/M02 A3001 RMK AO2 T10111017
Loading
Personal Weather Stations






























Interactive Weather Map New forecast layout! Learn more

10-Day Weather Forecast

Advertisements
Track Severe Weather on mobile